KSQI/SQI METAR and TAF weather

Enter ICAO airport designator
Station Type Date Time Source
KSQI METAR 2020/09/26 20:56 UTC NOAA

KSQI 262056Z AUTO 16008KT 090V220 10SM CLR 27/18 A2966 RMK AO2 SLP909 T02670178 56027


Station Type Date Time Source
KSQI Decoded METAR 2020/09/26 20:56 UTC NOAA

Sterling Rockfalls, IL, United States (KSQI) 41-45N 089-40W
Sep 26, 2020 - 04:56 PM EDT / 2020.09.26 2056 UTC
Wind: from the SSE (160 degrees) at 9 MPH (8 KT) (direction variable):0
Visibility: 10 mile(s):0
Sky conditions: clear
Temperature: 80.1 F (26.7 C)
Dew Point: 64.0 F (17.8 C)
Relative Humidity: 58%
Pressure (altimeter): 29.66 in. Hg (1004 hPa)
Pressure tendency: 0.08 inches (2.7 hPa) lower than three hours ago
ob: KSQI 262056Z AUTO 16008KT 090V220 10SM CLR 27/18 A2966 RMK AO2 SLP909 T02670178 56027
cycle: 21

Station Type Date Time Source
KSQI TAF UTC NOAA

Error!

Example: see airport list